sensor_id;sensor_type;location;lat;lon;timestamp;P1;durP1;ratioP1;P2;durP2;ratioP2
46643;SDS011;32371;51.032;5.816;2023-08-01T00:01:20;0.10;;;0.10;;
46643;SDS011;32371;51.032;5.816;2023-08-01T00:03:45;1.30;;;0.10;;
46643;SDS011;32371;51.032;5.816;2023-08-01T00:06:11;2.38;;;0.10;;
46643;SDS011;32371;51.032;5.816;2023-08-01T00:08:38;0.00;;;0.00;;
46643;SDS011;32371;51.032;5.816;2023-08-01T00:11:03;0.00;;;0.00;;
46643;SDS011;32371;51.032;5.816;2023-08-01T00:13:29;0.00;;;0.00;;
46643;SDS011;32371;51.032;5.816;2023-08-01T00:15:54;0.20;;;0.17;;
46643;SDS011;32371;51.032;5.816;2023-08-01T00:18:20;0.45;;;0.10;;
46643;SDS011;32371;51.032;5.816;2023-08-01T00:20:45;0.32;;;0.00;;
46643;SDS011;32371;51.032;5.816;2023-08-01T00:23:11;0.10;;;0.05;;
46643;SDS011;32371;51.032;5.816;2023-08-01T00:25:36;0.10;;;0.00;;
46643;SDS011;32371;51.032;5.816;2023-08-01T00:28:01;0.47;;;0.10;;
46643;SDS011;32371;51.032;5.816;2023-08-01T00:30:27;0.20;;;0.10;;
46643;SDS011;32371;51.032;5.816;2023-08-01T00:32:52;0.32;;;0.10;;
46643;SDS011;32371;51.032;5.816;2023-08-01T00:35:17;0.20;;;0.00;;
46643;SDS011;32371;51.032;5.816;2023-08-01T00:37:43;0.10;;;0.10;;
46643;SDS011;32371;51.032;5.816;2023-08-01T00:40:08;0.90;;;0.10;;
46643;SDS011;32371;51.032;5.816;2023-08-01T00:42:35;0.38;;;0.38;;
46643;SDS011;32371;51.032;5.816;2023-08-01T00:45:02;0.05;;;0.05;;
46643;SDS011;32371;51.032;5.816;2023-08-01T00:47:28;0.35;;;0.10;;
46643;SDS011;32371;51.032;5.816;2023-08-01T00:49:54;0.10;;;0.10;;
46643;SDS011;32371;51.032;5.816;2023-08-01T00:52:19;2.85;;;0.10;;
46643;SDS011;32371;51.032;5.816;2023-08-01T00:54:45;0.28;;;0.28;;
46643;SDS011;32371;51.032;5.816;2023-08-01T00:57:12;2.15;;;0.28;;
46643;SDS011;32371;51.032;5.816;2023-08-01T00:59:38;0.75;;;0.52;;
46643;SDS011;32371;51.032;5.816;2023-08-01T01:02:04;1.13;;;0.20;;
46643;SDS011;32371;51.032;5.816;2023-08-01T01:04:30;0.25;;;0.25;;
46643;SDS011;32371;51.032;5.816;2023-08-01T01:07:06;2.50;;;0.38;;
46643;SDS011;32371;51.032;5.816;2023-08-01T01:09:31;1.17;;;0.30;;
46643;SDS011;32371;51.032;5.816;2023-08-01T01:11:57;0.55;;;0.22;;
46643;SDS011;32371;51.032;5.816;2023-08-01T01:14:24;0.20;;;0.20;;
46643;SDS011;32371;51.032;5.816;2023-08-01T01:16:52;0.43;;;0.43;;
46643;SDS011;32371;51.032;5.816;2023-08-01T01:19:18;2.83;;;0.40;;
46643;SDS011;32371;51.032;5.816;2023-08-01T01:21:43;0.65;;;0.30;;
46643;SDS011;32371;51.032;5.816;2023-08-01T01:24:09;0.98;;;0.40;;
46643;SDS011;32371;51.032;5.816;2023-08-01T01:26:36;0.40;;;0.30;;
46643;SDS011;32371;51.032;5.816;2023-08-01T01:29:05;0.60;;;0.30;;
46643;SDS011;32371;51.032;5.816;2023-08-01T01:31:31;2.05;;;0.40;;
46643;SDS011;32371;51.032;5.816;2023-08-01T01:33:57;2.33;;;0.45;;
46643;SDS011;32371;51.032;5.816;2023-08-01T01:36:23;1.17;;;0.47;;
46643;SDS011;32371;51.032;5.816;2023-08-01T01:38:48;0.80;;;0.70;;
46643;SDS011;32371;51.032;5.816;2023-08-01T01:41:14;1.60;;;0.40;;
46643;SDS011;32371;51.032;5.816;2023-08-01T01:43:39;1.90;;;0.65;;
46643;SDS011;32371;51.032;5.816;2023-08-01T01:46:05;1.80;;;1.33;;
46643;SDS011;32371;51.032;5.816;2023-08-01T01:48:31;1.05;;;0.55;;
46643;SDS011;32371;51.032;5.816;2023-08-01T01:50:57;2.15;;;0.88;;
46643;SDS011;32371;51.032;5.816;2023-08-01T01:53:22;3.60;;;0.60;;
46643;SDS011;32371;51.032;5.816;2023-08-01T01:55:47;2.85;;;0.57;;
46643;SDS011;32371;51.032;5.816;2023-08-01T01:58:13;1.10;;;0.60;;
46643;SDS011;32371;51.032;5.816;2023-08-01T02:00:38;1.23;;;0.88;;
46643;SDS011;32371;51.032;5.816;2023-08-01T02:03:03;2.13;;;1.00;;
46643;SDS011;32371;51.032;5.816;2023-08-01T02:05:29;2.97;;;0.90;;
46643;SDS011;32371;51.032;5.816;2023-08-01T02:07:55;5.15;;;1.58;;
46643;SDS011;32371;51.032;5.816;2023-08-01T02:10:20;2.28;;;1.23;;
46643;SDS011;32371;51.032;5.816;2023-08-01T02:12:45;5.20;;;1.50;;
46643;SDS011;32371;51.032;5.816;2023-08-01T02:15:11;2.35;;;1.10;;
46643;SDS011;32371;51.032;5.816;2023-08-01T02:17:36;2.33;;;1.10;;
46643;SDS011;32371;51.032;5.816;2023-08-01T02:20:03;5.82;;;2.75;;
46643;SDS011;32371;51.032;5.816;2023-08-01T02:22:28;2.70;;;1.35;;
46643;SDS011;32371;51.032;5.816;2023-08-01T02:24:54;2.63;;;1.52;;
46643;SDS011;32371;51.032;5.816;2023-08-01T02:27:19;3.03;;;1.58;;
46643;SDS011;32371;51.032;5.816;2023-08-01T02:29:45;2.75;;;1.35;;
46643;SDS011;32371;51.032;5.816;2023-08-01T02:32:10;2.58;;;1.63;;
46643;SDS011;32371;51.032;5.816;2023-08-01T02:34:35;2.88;;;1.70;;
46643;SDS011;32371;51.032;5.816;2023-08-01T02:37:01;4.28;;;1.90;;
46643;SDS011;32371;51.032;5.816;2023-08-01T02:39:26;5.60;;;2.10;;
46643;SDS011;32371;51.032;5.816;2023-08-01T02:41:52;4.25;;;1.90;;
46643;SDS011;32371;51.032;5.816;2023-08-01T02:44:17;3.95;;;1.77;;
46643;SDS011;32371;51.032;5.816;2023-08-01T02:46:42;5.60;;;1.50;;
46643;SDS011;32371;51.032;5.816;2023-08-01T02:49:08;4.85;;;2.28;;
46643;SDS011;32371;51.032;5.816;2023-08-01T02:51:33;3.15;;;1.45;;
46643;SDS011;32371;51.032;5.816;2023-08-01T02:53:59;5.53;;;2.28;;
46643;SDS011;32371;51.032;5.816;2023-08-01T02:56:24;3.63;;;2.20;;
46643;SDS011;32371;51.032;5.816;2023-08-01T02:58:49;3.17;;;1.80;;
46643;SDS011;32371;51.032;5.816;2023-08-01T03:01:17;3.75;;;2.30;;
46643;SDS011;32371;51.032;5.816;2023-08-01T03:03:42;11.57;;;2.00;;
46643;SDS011;32371;51.032;5.816;2023-08-01T03:06:08;2.95;;;1.98;;
46643;SDS011;32371;51.032;5.816;2023-08-01T03:08:33;3.88;;;1.70;;
46643;SDS011;32371;51.032;5.816;2023-08-01T03:10:59;4.75;;;2.28;;
46643;SDS011;32371;51.032;5.816;2023-08-01T03:13:24;7.18;;;2.55;;
46643;SDS011;32371;51.032;5.816;2023-08-01T03:15:50;2.95;;;2.10;;
46643;SDS011;32371;51.032;5.816;2023-08-01T03:18:15;6.88;;;2.70;;
46643;SDS011;32371;51.032;5.816;2023-08-01T03:20:41;3.78;;;2.08;;
46643;SDS011;32371;51.032;5.816;2023-08-01T03:23:06;5.32;;;1.77;;
46643;SDS011;32371;51.032;5.816;2023-08-01T03:25:32;4.65;;;2.08;;
46643;SDS011;32371;51.032;5.816;2023-08-01T03:27:58;5.57;;;2.22;;
46643;SDS011;32371;51.032;5.816;2023-08-01T03:30:24;4.05;;;2.47;;
46643;SDS011;32371;51.032;5.816;2023-08-01T03:32:49;4.22;;;2.33;;
46643;SDS011;32371;51.032;5.816;2023-08-01T03:35:15;3.03;;;2.33;;
46643;SDS011;32371;51.032;5.816;2023-08-01T03:37:40;3.08;;;1.70;;
46643;SDS011;32371;51.032;5.816;2023-08-01T03:40:06;7.82;;;1.77;;
46643;SDS011;32371;51.032;5.816;2023-08-01T03:42:35;5.03;;;2.00;;
46643;SDS011;32371;51.032;5.816;2023-08-01T03:45:03;6.10;;;2.85;;
46643;SDS011;32371;51.032;5.816;2023-08-01T03:47:29;9.55;;;2.28;;
46643;SDS011;32371;51.032;5.816;2023-08-01T03:49:54;4.80;;;1.80;;
46643;SDS011;32371;51.032;5.816;2023-08-01T03:52:20;5.55;;;1.95;;
46643;SDS011;32371;51.032;5.816;2023-08-01T03:54:45;2.78;;;2.10;;
46643;SDS011;32371;51.032;5.816;2023-08-01T03:57:10;3.10;;;1.83;;
46643;SDS011;32371;51.032;5.816;2023-08-01T03:59:36;4.95;;;1.92;;
46643;SDS011;32371;51.032;5.816;2023-08-01T04:02:02;6.07;;;2.05;;
46643;SDS011;32371;51.032;5.816;2023-08-01T04:04:27;4.43;;;2.15;;
46643;SDS011;32371;51.032;5.816;2023-08-01T04:06:54;10.63;;;3.22;;
46643;SDS011;32371;51.032;5.816;2023-08-01T04:09:20;5.75;;;2.15;;
46643;SDS011;32371;51.032;5.816;2023-08-01T04:11:45;5.95;;;2.17;;
46643;SDS011;32371;51.032;5.816;2023-08-01T04:14:11;9.77;;;2.38;;
46643;SDS011;32371;51.032;5.816;2023-08-01T04:16:36;8.38;;;2.30;;
46643;SDS011;32371;51.032;5.816;2023-08-01T04:19:01;5.10;;;2.55;;
46643;SDS011;32371;51.032;5.816;2023-08-01T04:21:27;4.72;;;2.00;;
46643;SDS011;32371;51.032;5.816;2023-08-01T04:23:52;3.33;;;2.30;;
46643;SDS011;32371;51.032;5.816;2023-08-01T04:26:17;3.80;;;2.22;;
46643;SDS011;32371;51.032;5.816;2023-08-01T04:28:43;3.33;;;1.88;;
46643;SDS011;32371;51.032;5.816;2023-08-01T04:31:08;5.55;;;2.13;;
46643;SDS011;32371;51.032;5.816;2023-08-01T04:33:34;5.30;;;2.22;;
46643;SDS011;32371;51.032;5.816;2023-08-01T04:35:59;3.90;;;2.13;;
46643;SDS011;32371;51.032;5.816;2023-08-01T04:38:25;5.25;;;2.45;;
46643;SDS011;32371;51.032;5.816;2023-08-01T04:40:50;4.03;;;1.95;;
46643;SDS011;32371;51.032;5.816;2023-08-01T04:43:16;6.53;;;2.17;;
46643;SDS011;32371;51.032;5.816;2023-08-01T04:45:41;7.82;;;2.47;;
46643;SDS011;32371;51.032;5.816;2023-08-01T04:48:06;6.00;;;2.40;;
46643;SDS011;32371;51.032;5.816;2023-08-01T04:50:32;5.90;;;2.70;;
46643;SDS011;32371;51.032;5.816;2023-08-01T04:52:57;4.88;;;2.13;;
46643;SDS011;32371;51.032;5.816;2023-08-01T04:55:22;5.78;;;2.38;;
46643;SDS011;32371;51.032;5.816;2023-08-01T04:57:48;15.13;;;3.50;;
46643;SDS011;32371;51.032;5.816;2023-08-01T05:00:13;4.22;;;2.30;;
46643;SDS011;32371;51.032;5.816;2023-08-01T05:02:40;6.80;;;2.20;;
46643;SDS011;32371;51.032;5.816;2023-08-01T05:05:05;6.00;;;2.72;;
46643;SDS011;32371;51.032;5.816;2023-08-01T05:07:31;4.88;;;2.35;;
46643;SDS011;32371;51.032;5.816;2023-08-01T05:09:57;6.57;;;2.33;;
46643;SDS011;32371;51.032;5.816;2023-08-01T05:12:22;5.03;;;2.33;;
46643;SDS011;32371;51.032;5.816;2023-08-01T05:14:50;7.93;;;2.20;;
46643;SDS011;32371;51.032;5.816;2023-08-01T05:17:16;8.65;;;2.58;;
46643;SDS011;32371;51.032;5.816;2023-08-01T05:19:41;8.38;;;2.67;;
46643;SDS011;32371;51.032;5.816;2023-08-01T05:22:07;7.45;;;2.22;;
46643;SDS011;32371;51.032;5.816;2023-08-01T05:24:32;4.45;;;2.67;;
46643;SDS011;32371;51.032;5.816;2023-08-01T05:26:58;8.63;;;2.67;;
46643;SDS011;32371;51.032;5.816;2023-08-01T05:29:23;3.97;;;2.53;;
46643;SDS011;32371;51.032;5.816;2023-08-01T05:31:49;10.60;;;2.92;;
46643;SDS011;32371;51.032;5.816;2023-08-01T05:34:14;4.70;;;2.67;;
46643;SDS011;32371;51.032;5.816;2023-08-01T05:36:39;8.07;;;2.50;;
46643;SDS011;32371;51.032;5.816;2023-08-01T05:39:05;9.98;;;2.55;;
46643;SDS011;32371;51.032;5.816;2023-08-01T05:41:30;10.35;;;3.53;;
46643;SDS011;32371;51.032;5.816;2023-08-01T05:43:56;9.05;;;3.78;;
46643;SDS011;32371;51.032;5.816;2023-08-01T05:46:22;7.93;;;3.03;;
46643;SDS011;32371;51.032;5.816;2023-08-01T05:48:47;8.98;;;3.10;;
46643;SDS011;32371;51.032;5.816;2023-08-01T05:51:12;6.00;;;3.15;;
46643;SDS011;32371;51.032;5.816;2023-08-01T05:53:38;8.23;;;3.28;;
46643;SDS011;32371;51.032;5.816;2023-08-01T05:56:03;8.00;;;4.28;;
46643;SDS011;32371;51.032;5.816;2023-08-01T05:58:29;7.22;;;3.67;;
46643;SDS011;32371;51.032;5.816;2023-08-01T06:00:55;5.82;;;3.38;;
46643;SDS011;32371;51.032;5.816;2023-08-01T06:03:21;9.60;;;3.50;;
46643;SDS011;32371;51.032;5.816;2023-08-01T06:05:46;6.80;;;2.90;;
46643;SDS011;32371;51.032;5.816;2023-08-01T06:08:11;6.93;;;3.28;;
46643;SDS011;32371;51.032;5.816;2023-08-01T06:10:38;7.25;;;3.00;;
46643;SDS011;32371;51.032;5.816;2023-08-01T06:13:03;7.07;;;2.80;;
46643;SDS011;32371;51.032;5.816;2023-08-01T06:15:29;8.75;;;3.42;;
46643;SDS011;32371;51.032;5.816;2023-08-01T06:17:54;6.45;;;3.20;;
46643;SDS011;32371;51.032;5.816;2023-08-01T06:20:20;8.50;;;3.10;;
46643;SDS011;32371;51.032;5.816;2023-08-01T06:22:45;8.38;;;2.42;;
46643;SDS011;32371;51.032;5.816;2023-08-01T06:25:10;9.05;;;2.75;;
46643;SDS011;32371;51.032;5.816;2023-08-01T06:27:36;4.97;;;3.17;;
46643;SDS011;32371;51.032;5.816;2023-08-01T06:30:02;6.45;;;2.67;;
46643;SDS011;32371;51.032;5.816;2023-08-01T06:32:28;6.60;;;2.80;;
46643;SDS011;32371;51.032;5.816;2023-08-01T06:34:53;4.68;;;2.67;;
46643;SDS011;32371;51.032;5.816;2023-08-01T06:37:18;9.90;;;2.30;;
46643;SDS011;32371;51.032;5.816;2023-08-01T06:39:44;9.73;;;3.28;;
46643;SDS011;32371;51.032;5.816;2023-08-01T06:42:09;10.25;;;2.38;;
46643;SDS011;32371;51.032;5.816;2023-08-01T06:44:36;10.50;;;2.67;;
46643;SDS011;32371;51.032;5.816;2023-08-01T06:47:01;6.00;;;2.10;;
46643;SDS011;32371;51.032;5.816;2023-08-01T06:49:27;8.90;;;2.75;;
46643;SDS011;32371;51.032;5.816;2023-08-01T06:51:52;4.93;;;2.60;;
46643;SDS011;32371;51.032;5.816;2023-08-01T06:54:17;6.15;;;2.25;;
46643;SDS011;32371;51.032;5.816;2023-08-01T06:56:43;8.38;;;2.85;;
46643;SDS011;32371;51.032;5.816;2023-08-01T06:59:12;7.07;;;2.60;;
46643;SDS011;32371;51.032;5.816;2023-08-01T07:04:10;6.28;;;2.50;;
46643;SDS011;32371;51.032;5.816;2023-08-01T07:06:35;8.60;;;3.65;;
46643;SDS011;32371;51.032;5.816;2023-08-01T07:09:01;4.10;;;2.72;;
46643;SDS011;32371;51.032;5.816;2023-08-01T07:11:26;8.65;;;2.72;;
46643;SDS011;32371;51.032;5.816;2023-08-01T07:13:51;9.68;;;2.60;;
46643;SDS011;32371;51.032;5.816;2023-08-01T07:16:17;9.38;;;3.65;;
46643;SDS011;32371;51.032;5.816;2023-08-01T07:18:42;5.47;;;3.15;;
46643;SDS011;32371;51.032;5.816;2023-08-01T07:21:08;9.55;;;2.70;;
46643;SDS011;32371;51.032;5.816;2023-08-01T07:23:33;13.80;;;3.05;;
46643;SDS011;32371;51.032;5.816;2023-08-01T07:26:00;8.38;;;2.92;;
46643;SDS011;32371;51.032;5.816;2023-08-01T07:28:25;5.88;;;2.42;;
46643;SDS011;32371;51.032;5.816;2023-08-01T07:31:04;11.75;;;2.78;;
46643;SDS011;32371;51.032;5.816;2023-08-01T07:33:31;4.38;;;2.97;;
46643;SDS011;32371;51.032;5.816;2023-08-01T07:35:56;13.20;;;2.78;;
46643;SDS011;32371;51.032;5.816;2023-08-01T07:38:22;6.45;;;2.67;;
46643;SDS011;32371;51.032;5.816;2023-08-01T07:40:47;6.82;;;2.08;;
46643;SDS011;32371;51.032;5.816;2023-08-01T07:43:13;7.13;;;2.50;;
46643;SDS011;32371;51.032;5.816;2023-08-01T07:45:39;5.38;;;2.90;;
46643;SDS011;32371;51.032;5.816;2023-08-01T07:48:04;6.25;;;2.08;;
46643;SDS011;32371;51.032;5.816;2023-08-01T07:50:29;7.68;;;3.25;;
46643;SDS011;32371;51.032;5.816;2023-08-01T07:52:55;6.53;;;2.67;;
46643;SDS011;32371;51.032;5.816;2023-08-01T07:55:20;4.63;;;2.17;;
46643;SDS011;32371;51.032;5.816;2023-08-01T07:57:46;9.05;;;2.45;;
46643;SDS011;32371;51.032;5.816;2023-08-01T08:00:12;5.57;;;2.60;;
46643;SDS011;32371;51.032;5.816;2023-08-01T08:02:38;6.53;;;2.58;;
46643;SDS011;32371;51.032;5.816;2023-08-01T08:05:04;4.13;;;2.30;;
46643;SDS011;32371;51.032;5.816;2023-08-01T08:07:30;5.18;;;2.45;;
46643;SDS011;32371;51.032;5.816;2023-08-01T08:09:55;7.75;;;3.22;;
46643;SDS011;32371;51.032;5.816;2023-08-01T08:12:21;5.30;;;2.22;;
46643;SDS011;32371;51.032;5.816;2023-08-01T08:14:47;9.35;;;2.40;;
46643;SDS011;32371;51.032;5.816;2023-08-01T08:17:13;7.78;;;2.97;;
46643;SDS011;32371;51.032;5.816;2023-08-01T08:19:38;4.88;;;3.05;;
46643;SDS011;32371;51.032;5.816;2023-08-01T08:22:04;4.88;;;2.17;;
46643;SDS011;32371;51.032;5.816;2023-08-01T08:24:29;5.65;;;2.30;;
46643;SDS011;32371;51.032;5.816;2023-08-01T08:26:55;6.30;;;2.20;;
46643;SDS011;32371;51.032;5.816;2023-08-01T08:29:20;6.20;;;2.75;;
46643;SDS011;32371;51.032;5.816;2023-08-01T08:31:46;5.75;;;2.60;;
46643;SDS011;32371;51.032;5.816;2023-08-01T08:34:11;9.52;;;2.70;;
46643;SDS011;32371;51.032;5.816;2023-08-01T08:36:37;4.20;;;2.25;;
46643;SDS011;32371;51.032;5.816;2023-08-01T08:39:02;7.88;;;2.67;;
46643;SDS011;32371;51.032;5.816;2023-08-01T08:41:31;5.45;;;2.33;;
46643;SDS011;32371;51.032;5.816;2023-08-01T08:44:01;6.75;;;2.53;;
46643;SDS011;32371;51.032;5.816;2023-08-01T08:46:27;9.93;;;2.15;;
46643;SDS011;32371;51.032;5.816;2023-08-01T08:48:54;4.65;;;2.10;;
46643;SDS011;32371;51.032;5.816;2023-08-01T08:51:20;7.00;;;3.10;;
46643;SDS011;32371;51.032;5.816;2023-08-01T08:53:46;5.70;;;1.85;;
46643;SDS011;32371;51.032;5.816;2023-08-01T08:56:12;7.18;;;2.08;;
46643;SDS011;32371;51.032;5.816;2023-08-01T08:58:37;6.38;;;2.05;;
46643;SDS011;32371;51.032;5.816;2023-08-01T09:01:06;8.45;;;2.20;;
46643;SDS011;32371;51.032;5.816;2023-08-01T09:03:33;7.53;;;2.22;;
46643;SDS011;32371;51.032;5.816;2023-08-01T09:06:07;4.28;;;2.30;;
46643;SDS011;32371;51.032;5.816;2023-08-01T09:08:37;4.47;;;2.28;;
46643;SDS011;32371;51.032;5.816;2023-08-01T09:11:04;6.03;;;2.10;;
46643;SDS011;32371;51.032;5.816;2023-08-01T09:13:30;6.10;;;1.98;;
46643;SDS011;32371;51.032;5.816;2023-08-01T09:15:56;10.40;;;2.03;;
46643;SDS011;32371;51.032;5.816;2023-08-01T09:18:21;3.08;;;1.75;;
46643;SDS011;32371;51.032;5.816;2023-08-01T09:20:47;3.92;;;1.83;;
46643;SDS011;32371;51.032;5.816;2023-08-01T09:23:15;7.95;;;2.17;;
46643;SDS011;32371;51.032;5.816;2023-08-01T09:25:42;6.90;;;2.00;;
46643;SDS011;32371;51.032;5.816;2023-08-01T09:28:20;7.07;;;2.58;;
46643;SDS011;32371;51.032;5.816;2023-08-01T09:30:48;4.97;;;2.17;;
46643;SDS011;32371;51.032;5.816;2023-08-01T09:33:19;7.97;;;1.85;;
46643;SDS011;32371;51.032;5.816;2023-08-01T09:35:44;6.10;;;1.90;;
46643;SDS011;32371;51.032;5.816;2023-08-01T09:38:14;2.47;;;1.58;;
46643;SDS011;32371;51.032;5.816;2023-08-01T09:40:40;3.38;;;1.60;;
46643;SDS011;32371;51.032;5.816;2023-08-01T09:43:06;1.92;;;1.50;;
46643;SDS011;32371;51.032;5.816;2023-08-01T09:45:32;5.50;;;2.10;;
46643;SDS011;32371;51.032;5.816;2023-08-01T09:47:59;3.50;;;2.20;;
46643;SDS011;32371;51.032;5.816;2023-08-01T09:50:25;6.03;;;1.70;;
46643;SDS011;32371;51.032;5.816;2023-08-01T09:52:50;4.88;;;2.55;;
46643;SDS011;32371;51.032;5.816;2023-08-01T09:55:25;4.28;;;1.80;;
46643;SDS011;32371;51.032;5.816;2023-08-01T09:57:53;5.78;;;1.70;;
46643;SDS011;32371;51.032;5.816;2023-08-01T10:00:22;4.57;;;2.67;;
46643;SDS011;32371;51.032;5.816;2023-08-01T10:02:47;5.40;;;2.50;;
46643;SDS011;32371;51.032;5.816;2023-08-01T10:05:14;3.83;;;2.70;;
46643;SDS011;32371;51.032;5.816;2023-08-01T10:07:40;5.80;;;2.20;;
46643;SDS011;32371;51.032;5.816;2023-08-01T10:10:06;4.43;;;1.83;;
46643;SDS011;32371;51.032;5.816;2023-08-01T10:12:32;3.33;;;1.63;;
46643;SDS011;32371;51.032;5.816;2023-08-01T10:14:58;6.28;;;1.85;;
46643;SDS011;32371;51.032;5.816;2023-08-01T10:17:24;6.55;;;2.08;;
46643;SDS011;32371;51.032;5.816;2023-08-01T10:19:50;3.40;;;1.75;;
46643;SDS011;32371;51.032;5.816;2023-08-01T10:22:18;4.13;;;2.03;;
46643;SDS011;32371;51.032;5.816;2023-08-01T10:24:44;3.25;;;1.55;;
46643;SDS011;32371;51.032;5.816;2023-08-01T10:27:14;3.60;;;1.67;;
46643;SDS011;32371;51.032;5.816;2023-08-01T10:29:41;3.22;;;1.70;;
46643;SDS011;32371;51.032;5.816;2023-08-01T10:32:07;4.40;;;1.52;;
46643;SDS011;32371;51.032;5.816;2023-08-01T10:34:32;3.97;;;1.83;;
46643;SDS011;32371;51.032;5.816;2023-08-01T10:36:58;4.15;;;1.52;;
46643;SDS011;32371;51.032;5.816;2023-08-01T10:39:24;2.88;;;1.67;;
46643;SDS011;32371;51.032;5.816;2023-08-01T10:41:57;1.67;;;1.58;;
46643;SDS011;32371;51.032;5.816;2023-08-01T10:44:26;4.93;;;1.83;;
46643;SDS011;32371;51.032;5.816;2023-08-01T10:46:59;1.90;;;1.40;;
46643;SDS011;32371;51.032;5.816;2023-08-01T10:49:33;2.72;;;1.30;;
46643;SDS011;32371;51.032;5.816;2023-08-01T10:51:59;3.50;;;1.70;;
46643;SDS011;32371;51.032;5.816;2023-08-01T10:54:25;1.80;;;1.15;;
46643;SDS011;32371;51.032;5.816;2023-08-01T10:56:51;3.47;;;1.75;;
46643;SDS011;32371;51.032;5.816;2023-08-01T10:59:17;4.88;;;1.05;;
46643;SDS011;32371;51.032;5.816;2023-08-01T11:01:52;2.28;;;1.27;;
46643;SDS011;32371;51.032;5.816;2023-08-01T11:04:19;4.13;;;1.83;;
46643;SDS011;32371;51.032;5.816;2023-08-01T11:06:46;3.70;;;1.45;;
46643;SDS011;32371;51.032;5.816;2023-08-01T11:09:16;2.85;;;0.93;;
46643;SDS011;32371;51.032;5.816;2023-08-01T11:11:42;3.45;;;1.00;;
46643;SDS011;32371;51.032;5.816;2023-08-01T11:14:08;3.55;;;1.92;;
46643;SDS011;32371;51.032;5.816;2023-08-01T11:16:33;3.78;;;1.02;;
46643;SDS011;32371;51.032;5.816;2023-08-01T11:18:59;4.90;;;1.30;;
46643;SDS011;32371;51.032;5.816;2023-08-01T11:21:27;4.30;;;1.25;;
46643;SDS011;32371;51.032;5.816;2023-08-01T11:23:52;1.75;;;1.13;;
46643;SDS011;32371;51.032;5.816;2023-08-01T11:26:18;5.95;;;2.03;;
46643;SDS011;32371;51.032;5.816;2023-08-01T11:28:43;2.08;;;1.02;;
46643;SDS011;32371;51.032;5.816;2023-08-01T11:31:12;3.05;;;1.42;;
46643;SDS011;32371;51.032;5.816;2023-08-01T11:33:38;2.55;;;1.17;;
46643;SDS011;32371;51.032;5.816;2023-08-01T11:36:04;2.72;;;1.70;;
46643;SDS011;32371;51.032;5.816;2023-08-01T11:38:32;5.35;;;1.35;;
46643;SDS011;32371;51.032;5.816;2023-08-01T11:40:59;2.13;;;1.08;;
46643;SDS011;32371;51.032;5.816;2023-08-01T11:43:25;2.10;;;1.00;;
46643;SDS011;32371;51.032;5.816;2023-08-01T11:45:51;3.20;;;1.52;;
46643;SDS011;32371;51.032;5.816;2023-08-01T11:48:19;4.80;;;1.35;;
46643;SDS011;32371;51.032;5.816;2023-08-01T11:50:45;2.80;;;1.25;;
46643;SDS011;32371;51.032;5.816;2023-08-01T11:53:20;3.72;;;1.17;;
46643;SDS011;32371;51.032;5.816;2023-08-01T11:55:46;2.92;;;1.17;;
46643;SDS011;32371;51.032;5.816;2023-08-01T11:58:12;3.30;;;1.48;;
46643;SDS011;32371;51.032;5.816;2023-08-01T12:00:39;5.18;;;1.33;;
46643;SDS011;32371;51.032;5.816;2023-08-01T12:05:32;1.63;;;1.13;;
46643;SDS011;32371;51.032;5.816;2023-08-01T12:08:07;1.58;;;0.98;;
46643;SDS011;32371;51.032;5.816;2023-08-01T12:10:48;4.05;;;1.35;;
46643;SDS011;32371;51.032;5.816;2023-08-01T12:13:20;4.97;;;1.60;;
46643;SDS011;32371;51.032;5.816;2023-08-01T12:15:47;3.33;;;1.33;;
46643;SDS011;32371;51.032;5.816;2023-08-01T12:18:20;3.42;;;1.95;;
46643;SDS011;32371;51.032;5.816;2023-08-01T12:20:46;5.60;;;1.40;;
46643;SDS011;32371;51.032;5.816;2023-08-01T12:23:12;4.43;;;1.25;;
46643;SDS011;32371;51.032;5.816;2023-08-01T12:25:38;4.82;;;1.40;;
46643;SDS011;32371;51.032;5.816;2023-08-01T12:28:03;1.67;;;1.42;;
46643;SDS011;32371;51.032;5.816;2023-08-01T12:30:29;1.83;;;1.05;;
46643;SDS011;32371;51.032;5.816;2023-08-01T12:32:55;3.42;;;1.40;;
46643;SDS011;32371;51.032;5.816;2023-08-01T12:35:20;1.90;;;1.27;;
46643;SDS011;32371;51.032;5.816;2023-08-01T12:37:46;5.25;;;1.25;;
46643;SDS011;32371;51.032;5.816;2023-08-01T12:40:11;3.72;;;1.55;;
46643;SDS011;32371;51.032;5.816;2023-08-01T12:42:36;3.45;;;1.08;;
46643;SDS011;32371;51.032;5.816;2023-08-01T12:45:02;4.15;;;1.20;;
46643;SDS011;32371;51.032;5.816;2023-08-01T12:47:28;4.95;;;1.58;;
46643;SDS011;32371;51.032;5.816;2023-08-01T12:49:53;2.90;;;1.30;;
46643;SDS011;32371;51.032;5.816;2023-08-01T12:52:23;4.78;;;1.83;;
46643;SDS011;32371;51.032;5.816;2023-08-01T12:57:17;4.55;;;1.50;;
46643;SDS011;32371;51.032;5.816;2023-08-01T12:59:42;5.50;;;1.35;;
46643;SDS011;32371;51.032;5.816;2023-08-01T13:02:07;1.95;;;1.10;;
46643;SDS011;32371;51.032;5.816;2023-08-01T13:04:36;6.47;;;1.63;;
46643;SDS011;32371;51.032;5.816;2023-08-01T13:07:01;3.85;;;1.52;;
46643;SDS011;32371;51.032;5.816;2023-08-01T13:09:26;1.58;;;1.48;;
46643;SDS011;32371;51.032;5.816;2023-08-01T13:11:52;2.10;;;1.60;;
46643;SDS011;32371;51.032;5.816;2023-08-01T13:14:18;3.17;;;1.27;;
46643;SDS011;32371;51.032;5.816;2023-08-01T13:16:43;2.60;;;1.00;;
46643;SDS011;32371;51.032;5.816;2023-08-01T13:19:08;2.92;;;1.00;;
46643;SDS011;32371;51.032;5.816;2023-08-01T13:21:34;1.85;;;0.95;;
46643;SDS011;32371;51.032;5.816;2023-08-01T13:24:00;1.38;;;0.90;;
46643;SDS011;32371;51.032;5.816;2023-08-01T13:26:30;3.65;;;0.98;;
46643;SDS011;32371;51.032;5.816;2023-08-01T13:28:56;3.13;;;0.82;;
46643;SDS011;32371;51.032;5.816;2023-08-01T13:31:21;6.18;;;1.20;;
46643;SDS011;32371;51.032;5.816;2023-08-01T13:33:47;1.95;;;0.82;;
46643;SDS011;32371;51.032;5.816;2023-08-01T13:36:13;1.17;;;1.02;;
46643;SDS011;32371;51.032;5.816;2023-08-01T13:38:38;3.33;;;0.80;;
46643;SDS011;32371;51.032;5.816;2023-08-01T13:41:03;3.20;;;0.85;;
46643;SDS011;32371;51.032;5.816;2023-08-01T13:43:29;2.72;;;1.17;;
46643;SDS011;32371;51.032;5.816;2023-08-01T13:45:54;4.57;;;1.10;;
46643;SDS011;32371;51.032;5.816;2023-08-01T13:48:20;2.83;;;0.93;;
46643;SDS011;32371;51.032;5.816;2023-08-01T13:50:45;2.92;;;1.00;;
46643;SDS011;32371;51.032;5.816;2023-08-01T13:53:11;0.88;;;0.60;;
46643;SDS011;32371;51.032;5.816;2023-08-01T13:55:38;5.50;;;1.10;;
46643;SDS011;32371;51.032;5.816;2023-08-01T13:58:04;5.68;;;1.35;;
46643;SDS011;32371;51.032;5.816;2023-08-01T14:00:30;2.90;;;0.88;;
46643;SDS011;32371;51.032;5.816;2023-08-01T14:02:56;6.65;;;1.10;;
46643;SDS011;32371;51.032;5.816;2023-08-01T14:05:24;1.55;;;0.75;;
46643;SDS011;32371;51.032;5.816;2023-08-01T14:07:50;3.85;;;0.90;;
46643;SDS011;32371;51.032;5.816;2023-08-01T14:10:15;1.48;;;0.63;;
46643;SDS011;32371;51.032;5.816;2023-08-01T14:12:41;2.22;;;0.90;;
46643;SDS011;32371;51.032;5.816;2023-08-01T14:15:06;1.55;;;1.00;;
46643;SDS011;32371;51.032;5.816;2023-08-01T14:17:32;3.28;;;1.00;;
46643;SDS011;32371;51.032;5.816;2023-08-01T14:19:58;4.22;;;1.00;;
46643;SDS011;32371;51.032;5.816;2023-08-01T14:22:25;5.05;;;1.27;;
46643;SDS011;32371;51.032;5.816;2023-08-01T14:24:50;5.15;;;1.27;;
46643;SDS011;32371;51.032;5.816;2023-08-01T14:27:16;1.58;;;0.85;;
46643;SDS011;32371;51.032;5.816;2023-08-01T14:29:42;2.97;;;0.90;;
46643;SDS011;32371;51.032;5.816;2023-08-01T14:32:07;2.42;;;1.15;;
46643;SDS011;32371;51.032;5.816;2023-08-01T14:34:32;2.85;;;1.05;;
46643;SDS011;32371;51.032;5.816;2023-08-01T14:36:58;3.85;;;1.00;;
46643;SDS011;32371;51.032;5.816;2023-08-01T14:39:23;2.72;;;0.98;;
46643;SDS011;32371;51.032;5.816;2023-08-01T14:41:49;3.53;;;0.90;;
46643;SDS011;32371;51.032;5.816;2023-08-01T14:44:15;3.60;;;0.80;;
46643;SDS011;32371;51.032;5.816;2023-08-01T14:46:40;2.03;;;1.42;;
46643;SDS011;32371;51.032;5.816;2023-08-01T14:49:05;2.28;;;0.88;;